sensor_id;sensor_type;location;lat;lon;timestamp;P1;durP1;ratioP1;P2;durP2;ratioP2
68097;SDS011;54886;47.036;15.466;2022-10-22T00:01:48;17.77;;;11.85;;
68097;SDS011;54886;47.036;15.466;2022-10-22T00:04:14;18.60;;;12.02;;
68097;SDS011;54886;47.036;15.466;2022-10-22T00:06:39;18.15;;;11.63;;
68097;SDS011;54886;47.036;15.466;2022-10-22T00:09:06;19.58;;;13.20;;
68097;SDS011;54886;47.036;15.466;2022-10-22T00:11:32;19.45;;;12.30;;
68097;SDS011;54886;47.036;15.466;2022-10-22T00:13:57;17.17;;;12.32;;
68097;SDS011;54886;47.036;15.466;2022-10-22T00:16:23;19.02;;;12.45;;
68097;SDS011;54886;47.036;15.466;2022-10-22T00:18:48;18.38;;;11.30;;
68097;SDS011;54886;47.036;15.466;2022-10-22T00:21:14;19.95;;;11.93;;
68097;SDS011;54886;47.036;15.466;2022-10-22T00:23:40;19.08;;;11.85;;
68097;SDS011;54886;47.036;15.466;2022-10-22T00:26:06;16.97;;;10.87;;
68097;SDS011;54886;47.036;15.466;2022-10-22T00:28:32;19.17;;;11.70;;
68097;SDS011;54886;47.036;15.466;2022-10-22T00:30:58;18.38;;;11.50;;
68097;SDS011;54886;47.036;15.466;2022-10-22T00:33:24;18.90;;;11.25;;
68097;SDS011;54886;47.036;15.466;2022-10-22T00:35:50;14.18;;;9.90;;
68097;SDS011;54886;47.036;15.466;2022-10-22T00:38:15;20.33;;;11.93;;
68097;SDS011;54886;47.036;15.466;2022-10-22T00:40:41;18.25;;;12.27;;
68097;SDS011;54886;47.036;15.466;2022-10-22T00:43:09;18.52;;;10.95;;
68097;SDS011;54886;47.036;15.466;2022-10-22T00:45:36;18.40;;;11.57;;
68097;SDS011;54886;47.036;15.466;2022-10-22T00:48:12;15.55;;;11.05;;
68097;SDS011;54886;47.036;15.466;2022-10-22T00:50:55;20.38;;;12.68;;
68097;SDS011;54886;47.036;15.466;2022-10-22T00:53:29;18.25;;;11.73;;
68097;SDS011;54886;47.036;15.466;2022-10-22T00:56:17;18.95;;;12.45;;
68097;SDS011;54886;47.036;15.466;2022-10-22T00:58:45;19.55;;;12.18;;
68097;SDS011;54886;47.036;15.466;2022-10-22T01:01:16;17.70;;;11.77;;
68097;SDS011;54886;47.036;15.466;2022-10-22T01:03:45;17.65;;;12.82;;
68097;SDS011;54886;47.036;15.466;2022-10-22T01:06:21;18.10;;;12.63;;
68097;SDS011;54886;47.036;15.466;2022-10-22T01:17:23;18.80;;;12.02;;
68097;SDS011;54886;47.036;15.466;2022-10-22T01:30:27;16.75;;;11.38;;
68097;SDS011;54886;47.036;15.466;2022-10-22T01:32:54;16.80;;;11.60;;
68097;SDS011;54886;47.036;15.466;2022-10-22T01:35:28;20.92;;;10.93;;
68097;SDS011;54886;47.036;15.466;2022-10-22T01:37:58;15.40;;;11.05;;
68097;SDS011;54886;47.036;15.466;2022-10-22T01:40:27;16.15;;;9.52;;
68097;SDS011;54886;47.036;15.466;2022-10-22T01:42:58;27.02;;;11.50;;
68097;SDS011;54886;47.036;15.466;2022-10-22T01:45:29;16.73;;;10.85;;
68097;SDS011;54886;47.036;15.466;2022-10-22T02:06:42;14.88;;;9.93;;
68097;SDS011;54886;47.036;15.466;2022-10-22T02:09:09;15.20;;;10.20;;
68097;SDS011;54886;47.036;15.466;2022-10-22T02:11:38;15.70;;;11.00;;
68097;SDS011;54886;47.036;15.466;2022-10-22T02:14:05;18.23;;;10.73;;
68097;SDS011;54886;47.036;15.466;2022-10-22T02:16:36;19.08;;;11.20;;
68097;SDS011;54886;47.036;15.466;2022-10-22T02:21:57;18.75;;;10.90;;
68097;SDS011;54886;47.036;15.466;2022-10-22T02:24:23;16.90;;;10.73;;
68097;SDS011;54886;47.036;15.466;2022-10-22T02:29:51;17.25;;;10.82;;
68097;SDS011;54886;47.036;15.466;2022-10-22T02:32:37;15.15;;;10.77;;
68097;SDS011;54886;47.036;15.466;2022-10-22T02:35:09;15.38;;;10.35;;
68097;SDS011;54886;47.036;15.466;2022-10-22T02:37:37;15.93;;;10.50;;
68097;SDS011;54886;47.036;15.466;2022-10-22T02:40:05;15.50;;;10.25;;
68097;SDS011;54886;47.036;15.466;2022-10-22T02:42:31;15.18;;;10.40;;
68097;SDS011;54886;47.036;15.466;2022-10-22T02:44:58;19.30;;;10.65;;
68097;SDS011;54886;47.036;15.466;2022-10-22T02:47:24;16.65;;;10.45;;
68097;SDS011;54886;47.036;15.466;2022-10-22T02:49:49;19.63;;;9.93;;
68097;SDS011;54886;47.036;15.466;2022-10-22T02:52:14;16.48;;;10.15;;
68097;SDS011;54886;47.036;15.466;2022-10-22T02:54:40;17.35;;;9.48;;
68097;SDS011;54886;47.036;15.466;2022-10-22T02:57:05;14.13;;;9.77;;
68097;SDS011;54886;47.036;15.466;2022-10-22T02:59:31;14.43;;;10.38;;
68097;SDS011;54886;47.036;15.466;2022-10-22T03:01:56;16.50;;;10.45;;
68097;SDS011;54886;47.036;15.466;2022-10-22T03:04:21;14.63;;;10.13;;
68097;SDS011;54886;47.036;15.466;2022-10-22T03:06:47;18.63;;;10.95;;
68097;SDS011;54886;47.036;15.466;2022-10-22T03:09:13;14.63;;;9.60;;
68097;SDS011;54886;47.036;15.466;2022-10-22T03:11:38;16.77;;;10.65;;
68097;SDS011;54886;47.036;15.466;2022-10-22T03:14:04;17.85;;;11.20;;
68097;SDS011;54886;47.036;15.466;2022-10-22T03:16:29;16.33;;;10.10;;
68097;SDS011;54886;47.036;15.466;2022-10-22T03:18:54;16.63;;;10.57;;
68097;SDS011;54886;47.036;15.466;2022-10-22T03:23:45;18.17;;;10.52;;
68097;SDS011;54886;47.036;15.466;2022-10-22T03:26:12;16.08;;;10.80;;
68097;SDS011;54886;47.036;15.466;2022-10-22T03:28:38;18.08;;;11.25;;
68097;SDS011;54886;47.036;15.466;2022-10-22T03:31:06;16.08;;;9.45;;
68097;SDS011;54886;47.036;15.466;2022-10-22T03:33:31;16.55;;;10.35;;
68097;SDS011;54886;47.036;15.466;2022-10-22T03:35:57;17.45;;;10.43;;
68097;SDS011;54886;47.036;15.466;2022-10-22T03:38:23;18.45;;;10.35;;
68097;SDS011;54886;47.036;15.466;2022-10-22T03:40:48;14.82;;;10.43;;
68097;SDS011;54886;47.036;15.466;2022-10-22T03:43:14;17.02;;;9.70;;
68097;SDS011;54886;47.036;15.466;2022-10-22T03:45:40;15.25;;;9.68;;
68097;SDS011;54886;47.036;15.466;2022-10-22T03:48:06;18.23;;;10.48;;
68097;SDS011;54886;47.036;15.466;2022-10-22T03:50:31;14.75;;;10.18;;
68097;SDS011;54886;47.036;15.466;2022-10-22T03:52:57;15.65;;;10.45;;
68097;SDS011;54886;47.036;15.466;2022-10-22T03:55:23;15.10;;;9.98;;
68097;SDS011;54886;47.036;15.466;2022-10-22T03:57:49;19.77;;;11.77;;
68097;SDS011;54886;47.036;15.466;2022-10-22T04:00:14;23.08;;;12.98;;
68097;SDS011;54886;47.036;15.466;2022-10-22T04:02:39;31.83;;;17.50;;
68097;SDS011;54886;47.036;15.466;2022-10-22T04:05:05;23.75;;;13.27;;
68097;SDS011;54886;47.036;15.466;2022-10-22T04:07:31;18.92;;;11.88;;
68097;SDS011;54886;47.036;15.466;2022-10-22T04:09:56;19.35;;;10.63;;
68097;SDS011;54886;47.036;15.466;2022-10-22T04:12:22;19.33;;;10.85;;
68097;SDS011;54886;47.036;15.466;2022-10-22T04:14:47;20.23;;;11.23;;
68097;SDS011;54886;47.036;15.466;2022-10-22T04:17:13;17.73;;;10.73;;
68097;SDS011;54886;47.036;15.466;2022-10-22T04:19:39;15.00;;;10.18;;
68097;SDS011;54886;47.036;15.466;2022-10-22T04:22:04;18.42;;;10.20;;
68097;SDS011;54886;47.036;15.466;2022-10-22T04:24:30;14.25;;;9.23;;
68097;SDS011;54886;47.036;15.466;2022-10-22T04:26:56;14.57;;;10.57;;
68097;SDS011;54886;47.036;15.466;2022-10-22T04:29:22;14.65;;;9.85;;
68097;SDS011;54886;47.036;15.466;2022-10-22T04:31:47;17.50;;;10.60;;
68097;SDS011;54886;47.036;15.466;2022-10-22T04:34:13;14.52;;;9.65;;
68097;SDS011;54886;47.036;15.466;2022-10-22T04:36:39;17.25;;;10.70;;
68097;SDS011;54886;47.036;15.466;2022-10-22T04:39:04;17.08;;;10.90;;
68097;SDS011;54886;47.036;15.466;2022-10-22T04:41:31;15.52;;;10.70;;
68097;SDS011;54886;47.036;15.466;2022-10-22T04:46:24;16.90;;;10.60;;
68097;SDS011;54886;47.036;15.466;2022-10-22T04:51:18;18.92;;;11.90;;
68097;SDS011;54886;47.036;15.466;2022-10-22T04:53:44;19.45;;;11.50;;
68097;SDS011;54886;47.036;15.466;2022-10-22T04:56:18;17.55;;;11.05;;
68097;SDS011;54886;47.036;15.466;2022-10-22T04:58:45;18.20;;;10.82;;
68097;SDS011;54886;47.036;15.466;2022-10-22T05:01:18;18.58;;;12.40;;
68097;SDS011;54886;47.036;15.466;2022-10-22T05:03:44;22.13;;;12.00;;
68097;SDS011;54886;47.036;15.466;2022-10-22T05:06:11;15.95;;;11.45;;
68097;SDS011;54886;47.036;15.466;2022-10-22T05:08:37;14.43;;;10.27;;
68097;SDS011;54886;47.036;15.466;2022-10-22T05:11:12;14.43;;;10.40;;
68097;SDS011;54886;47.036;15.466;2022-10-22T05:13:42;15.13;;;10.80;;
68097;SDS011;54886;47.036;15.466;2022-10-22T05:16:08;15.23;;;10.32;;
68097;SDS011;54886;47.036;15.466;2022-10-22T05:18:34;14.30;;;10.00;;
68097;SDS011;54886;47.036;15.466;2022-10-22T05:21:04;14.93;;;10.48;;
68097;SDS011;54886;47.036;15.466;2022-10-22T05:23:33;17.13;;;11.20;;
68097;SDS011;54886;47.036;15.466;2022-10-22T05:26:02;17.67;;;10.75;;
68097;SDS011;54886;47.036;15.466;2022-10-22T05:28:28;17.13;;;11.63;;
68097;SDS011;54886;47.036;15.466;2022-10-22T05:30:54;17.00;;;10.82;;
68097;SDS011;54886;47.036;15.466;2022-10-22T05:33:21;25.17;;;11.73;;
68097;SDS011;54886;47.036;15.466;2022-10-22T05:35:48;15.93;;;11.30;;
68097;SDS011;54886;47.036;15.466;2022-10-22T05:38:14;19.65;;;13.70;;
68097;SDS011;54886;47.036;15.466;2022-10-22T05:40:40;19.17;;;13.38;;
68097;SDS011;54886;47.036;15.466;2022-10-22T05:43:05;18.73;;;13.20;;
68097;SDS011;54886;47.036;15.466;2022-10-22T05:45:34;18.23;;;12.60;;
68097;SDS011;54886;47.036;15.466;2022-10-22T05:48:01;21.05;;;12.30;;
68097;SDS011;54886;47.036;15.466;2022-10-22T05:50:26;18.67;;;13.18;;
68097;SDS011;54886;47.036;15.466;2022-10-22T05:52:51;19.38;;;12.88;;
68097;SDS011;54886;47.036;15.466;2022-10-22T05:55:17;22.92;;;14.35;;
68097;SDS011;54886;47.036;15.466;2022-10-22T05:57:42;19.75;;;14.55;;
68097;SDS011;54886;47.036;15.466;2022-10-22T06:00:08;18.17;;;14.07;;
68097;SDS011;54886;47.036;15.466;2022-10-22T06:02:33;19.83;;;14.75;;
68097;SDS011;54886;47.036;15.466;2022-10-22T06:04:59;17.88;;;12.73;;
68097;SDS011;54886;47.036;15.466;2022-10-22T06:07:24;19.85;;;13.07;;
68097;SDS011;54886;47.036;15.466;2022-10-22T06:09:50;17.02;;;12.25;;
68097;SDS011;54886;47.036;15.466;2022-10-22T06:12:17;18.45;;;11.85;;
68097;SDS011;54886;47.036;15.466;2022-10-22T06:14:43;17.33;;;11.80;;
68097;SDS011;54886;47.036;15.466;2022-10-22T06:17:08;15.75;;;11.45;;
68097;SDS011;54886;47.036;15.466;2022-10-22T06:19:36;21.40;;;12.98;;
68097;SDS011;54886;47.036;15.466;2022-10-22T06:22:02;18.25;;;13.18;;
68097;SDS011;54886;47.036;15.466;2022-10-22T06:24:28;21.45;;;13.10;;
68097;SDS011;54886;47.036;15.466;2022-10-22T06:26:54;21.55;;;13.32;;
68097;SDS011;54886;47.036;15.466;2022-10-22T06:29:19;20.65;;;13.65;;
68097;SDS011;54886;47.036;15.466;2022-10-22T06:31:44;21.20;;;13.35;;
68097;SDS011;54886;47.036;15.466;2022-10-22T06:34:10;22.85;;;13.57;;
68097;SDS011;54886;47.036;15.466;2022-10-22T06:36:37;20.55;;;12.90;;
68097;SDS011;54886;47.036;15.466;2022-10-22T06:39:04;21.75;;;12.65;;
68097;SDS011;54886;47.036;15.466;2022-10-22T06:41:30;20.95;;;12.60;;
68097;SDS011;54886;47.036;15.466;2022-10-22T06:43:56;17.95;;;12.73;;
68097;SDS011;54886;47.036;15.466;2022-10-22T06:46:22;19.17;;;11.88;;
68097;SDS011;54886;47.036;15.466;2022-10-22T06:48:52;17.52;;;11.43;;
68097;SDS011;54886;47.036;15.466;2022-10-22T06:51:20;19.70;;;10.88;;
68097;SDS011;54886;47.036;15.466;2022-10-22T06:53:45;19.77;;;12.40;;
68097;SDS011;54886;47.036;15.466;2022-10-22T06:56:12;17.90;;;10.82;;
68097;SDS011;54886;47.036;15.466;2022-10-22T06:58:40;16.25;;;10.85;;
68097;SDS011;54886;47.036;15.466;2022-10-22T07:01:10;18.85;;;11.63;;
68097;SDS011;54886;47.036;15.466;2022-10-22T07:03:37;19.73;;;11.80;;
68097;SDS011;54886;47.036;15.466;2022-10-22T07:06:05;18.45;;;12.35;;
68097;SDS011;54886;47.036;15.466;2022-10-22T07:08:32;18.48;;;12.20;;
68097;SDS011;54886;47.036;15.466;2022-10-22T07:11:09;19.90;;;13.13;;
68097;SDS011;54886;47.036;15.466;2022-10-22T07:13:41;21.98;;;13.60;;
68097;SDS011;54886;47.036;15.466;2022-10-22T07:16:07;24.50;;;12.27;;
68097;SDS011;54886;47.036;15.466;2022-10-22T07:18:34;20.83;;;12.93;;
68097;SDS011;54886;47.036;15.466;2022-10-22T07:21:00;19.13;;;11.45;;
68097;SDS011;54886;47.036;15.466;2022-10-22T07:23:26;19.65;;;12.38;;
68097;SDS011;54886;47.036;15.466;2022-10-22T07:25:52;19.65;;;12.55;;
68097;SDS011;54886;47.036;15.466;2022-10-22T07:28:17;20.45;;;13.15;;
68097;SDS011;54886;47.036;15.466;2022-10-22T07:30:43;19.23;;;12.75;;
68097;SDS011;54886;47.036;15.466;2022-10-22T07:33:08;21.10;;;12.02;;
68097;SDS011;54886;47.036;15.466;2022-10-22T07:35:35;19.40;;;11.63;;
68097;SDS011;54886;47.036;15.466;2022-10-22T07:38:01;21.27;;;11.90;;
68097;SDS011;54886;47.036;15.466;2022-10-22T07:40:26;18.17;;;12.63;;
68097;SDS011;54886;47.036;15.466;2022-10-22T07:42:52;17.90;;;11.68;;
68097;SDS011;54886;47.036;15.466;2022-10-22T07:45:17;16.38;;;11.38;;
68097;SDS011;54886;47.036;15.466;2022-10-22T07:47:42;20.48;;;11.65;;
68097;SDS011;54886;47.036;15.466;2022-10-22T07:50:08;19.80;;;11.60;;
68097;SDS011;54886;47.036;15.466;2022-10-22T07:52:33;15.63;;;10.68;;
68097;SDS011;54886;47.036;15.466;2022-10-22T07:54:59;18.15;;;12.10;;
68097;SDS011;54886;47.036;15.466;2022-10-22T07:57:25;18.77;;;11.02;;
68097;SDS011;54886;47.036;15.466;2022-10-22T07:59:50;19.40;;;11.93;;
68097;SDS011;54886;47.036;15.466;2022-10-22T08:02:15;17.40;;;10.60;;
68097;SDS011;54886;47.036;15.466;2022-10-22T08:04:41;20.02;;;11.35;;
68097;SDS011;54886;47.036;15.466;2022-10-22T08:07:06;20.50;;;11.90;;
68097;SDS011;54886;47.036;15.466;2022-10-22T08:09:32;23.20;;;11.82;;
68097;SDS011;54886;47.036;15.466;2022-10-22T08:11:57;19.20;;;10.95;;
68097;SDS011;54886;47.036;15.466;2022-10-22T08:14:22;16.27;;;10.25;;
68097;SDS011;54886;47.036;15.466;2022-10-22T08:16:48;17.98;;;9.75;;
68097;SDS011;54886;47.036;15.466;2022-10-22T08:19:13;16.90;;;10.43;;
68097;SDS011;54886;47.036;15.466;2022-10-22T08:21:43;16.58;;;10.45;;
68097;SDS011;54886;47.036;15.466;2022-10-22T08:24:09;21.23;;;10.85;;
68097;SDS011;54886;47.036;15.466;2022-10-22T08:26:34;20.25;;;9.43;;
68097;SDS011;54886;47.036;15.466;2022-10-22T08:29:00;16.70;;;10.52;;
68097;SDS011;54886;47.036;15.466;2022-10-22T08:31:25;19.33;;;10.38;;
68097;SDS011;54886;47.036;15.466;2022-10-22T08:33:51;17.73;;;10.55;;
68097;SDS011;54886;47.036;15.466;2022-10-22T08:36:16;17.83;;;10.00;;
68097;SDS011;54886;47.036;15.466;2022-10-22T08:38:41;17.17;;;9.65;;
68097;SDS011;54886;47.036;15.466;2022-10-22T08:41:16;17.67;;;10.60;;
68097;SDS011;54886;47.036;15.466;2022-10-22T08:46:48;17.40;;;10.38;;
68097;SDS011;54886;47.036;15.466;2022-10-22T08:49:27;18.35;;;11.50;;
68097;SDS011;54886;47.036;15.466;2022-10-22T08:51:57;18.80;;;11.32;;
68097;SDS011;54886;47.036;15.466;2022-10-22T08:54:27;17.67;;;11.00;;
68097;SDS011;54886;47.036;15.466;2022-10-22T09:00:10;19.27;;;11.70;;
68097;SDS011;54886;47.036;15.466;2022-10-22T09:02:58;26.35;;;13.52;;
68097;SDS011;54886;47.036;15.466;2022-10-22T09:05:38;22.88;;;12.90;;
68097;SDS011;54886;47.036;15.466;2022-10-22T09:08:17;21.77;;;13.70;;
68097;SDS011;54886;47.036;15.466;2022-10-22T09:10:48;18.70;;;11.40;;
68097;SDS011;54886;47.036;15.466;2022-10-22T09:13:17;18.15;;;10.98;;
68097;SDS011;54886;47.036;15.466;2022-10-22T09:15:45;21.33;;;11.60;;
68097;SDS011;54886;47.036;15.466;2022-10-22T09:19:16;24.25;;;12.77;;
68097;SDS011;54886;47.036;15.466;2022-10-22T09:27:20;25.45;;;13.00;;
68097;SDS011;54886;47.036;15.466;2022-10-22T09:29:50;23.13;;;13.18;;
68097;SDS011;54886;47.036;15.466;2022-10-22T09:32:15;25.08;;;13.82;;
68097;SDS011;54886;47.036;15.466;2022-10-22T09:34:45;24.52;;;13.52;;
68097;SDS011;54886;47.036;15.466;2022-10-22T09:37:12;22.90;;;13.18;;
68097;SDS011;54886;47.036;15.466;2022-10-22T09:39:50;21.77;;;13.75;;
68097;SDS011;54886;47.036;15.466;2022-10-22T09:42:17;23.77;;;13.82;;
68097;SDS011;54886;47.036;15.466;2022-10-22T09:44:43;20.67;;;12.10;;
68097;SDS011;54886;47.036;15.466;2022-10-22T09:52:33;22.50;;;12.05;;
68097;SDS011;54886;47.036;15.466;2022-10-22T09:55:01;17.83;;;11.82;;
68097;SDS011;54886;47.036;15.466;2022-10-22T09:59:53;16.80;;;10.45;;
68097;SDS011;54886;47.036;15.466;2022-10-22T10:02:20;17.95;;;10.15;;
68097;SDS011;54886;47.036;15.466;2022-10-22T10:07:19;20.52;;;10.57;;
68097;SDS011;54886;47.036;15.466;2022-10-22T10:09:46;20.23;;;11.15;;
68097;SDS011;54886;47.036;15.466;2022-10-22T10:18:35;17.73;;;11.02;;
68097;SDS011;54886;47.036;15.466;2022-10-22T10:20:53;18.67;;;11.75;;
68097;SDS011;54886;47.036;15.466;2022-10-22T10:26:18;21.92;;;13.00;;
68097;SDS011;54886;47.036;15.466;2022-10-22T10:43:26;19.80;;;12.10;;
68097;SDS011;54886;47.036;15.466;2022-10-22T10:58:56;25.38;;;13.27;;
68097;SDS011;54886;47.036;15.466;2022-10-22T11:06:56;22.52;;;12.23;;
68097;SDS011;54886;47.036;15.466;2022-10-22T11:09:27;24.52;;;13.35;;
68097;SDS011;54886;47.036;15.466;2022-10-22T11:12:09;27.40;;;14.13;;
68097;SDS011;54886;47.036;15.466;2022-10-22T11:14:48;23.58;;;12.80;;
68097;SDS011;54886;47.036;15.466;2022-10-22T11:17:17;20.83;;;13.50;;
68097;SDS011;54886;47.036;15.466;2022-10-22T11:19:48;23.63;;;14.23;;
68097;SDS011;54886;47.036;15.466;2022-10-22T11:22:51;21.35;;;12.90;;
68097;SDS011;54886;47.036;15.466;2022-10-22T11:30:15;22.67;;;12.60;;
68097;SDS011;54886;47.036;15.466;2022-10-22T11:32:50;18.08;;;12.63;;
68097;SDS011;54886;47.036;15.466;2022-10-22T11:35:21;25.02;;;14.88;;
68097;SDS011;54886;47.036;15.466;2022-10-22T11:37:50;22.27;;;13.50;;
68097;SDS011;54886;47.036;15.466;2022-10-22T11:40:28;22.77;;;14.02;;
68097;SDS011;54886;47.036;15.466;2022-10-22T11:43:02;21.15;;;13.77;;
68097;SDS011;54886;47.036;15.466;2022-10-22T11:48:13;22.95;;;15.50;;
68097;SDS011;54886;47.036;15.466;2022-10-22T11:50:50;21.77;;;14.00;;
68097;SDS011;54886;47.036;15.466;2022-10-22T11:55:50;20.88;;;13.00;;
68097;SDS011;54886;47.036;15.466;2022-10-22T12:08:37;18.27;;;12.73;;
68097;SDS011;54886;47.036;15.466;2022-10-22T12:14:00;18.83;;;13.20;;
68097;SDS011;54886;47.036;15.466;2022-10-22T12:17:24;23.88;;;12.80;;
68097;SDS011;54886;47.036;15.466;2022-10-22T12:24:33;18.33;;;12.35;;
68097;SDS011;54886;47.036;15.466;2022-10-22T12:27:01;24.73;;;13.02;;
68097;SDS011;54886;47.036;15.466;2022-10-22T12:29:29;27.02;;;13.55;;
68097;SDS011;54886;47.036;15.466;2022-10-22T12:31:56;22.02;;;13.30;;
68097;SDS011;54886;47.036;15.466;2022-10-22T12:34:27;20.52;;;13.70;;
68097;SDS011;54886;47.036;15.466;2022-10-22T12:36:54;21.60;;;13.40;;
68097;SDS011;54886;47.036;15.466;2022-10-22T12:39:21;22.77;;;13.32;;
68097;SDS011;54886;47.036;15.466;2022-10-22T12:41:50;20.95;;;13.68;;
68097;SDS011;54886;47.036;15.466;2022-10-22T12:44:17;20.83;;;14.18;;
68097;SDS011;54886;47.036;15.466;2022-10-22T12:46:43;20.67;;;13.25;;
68097;SDS011;54886;47.036;15.466;2022-10-22T12:51:44;20.23;;;12.65;;
68097;SDS011;54886;47.036;15.466;2022-10-22T12:54:21;23.00;;;13.35;;
68097;SDS011;54886;47.036;15.466;2022-10-22T12:56:51;21.45;;;12.90;;
68097;SDS011;54886;47.036;15.466;2022-10-22T12:59:28;22.27;;;13.23;;
68097;SDS011;54886;47.036;15.466;2022-10-22T13:02:01;22.98;;;13.10;;
68097;SDS011;54886;47.036;15.466;2022-10-22T13:04:39;20.38;;;12.75;;
68097;SDS011;54886;47.036;15.466;2022-10-22T13:07:26;20.15;;;13.50;;
68097;SDS011;54886;47.036;15.466;2022-10-22T13:10:01;25.48;;;13.32;;
68097;SDS011;54886;47.036;15.466;2022-10-22T13:12:33;22.70;;;13.13;;
68097;SDS011;54886;47.036;15.466;2022-10-22T13:18:12;22.35;;;14.05;;
68097;SDS011;54886;47.036;15.466;2022-10-22T13:20:49;20.30;;;13.30;;
68097;SDS011;54886;47.036;15.466;2022-10-22T13:23:21;20.33;;;13.73;;
68097;SDS011;54886;47.036;15.466;2022-10-22T13:28:50;22.70;;;14.10;;
68097;SDS011;54886;47.036;15.466;2022-10-22T13:31:18;21.67;;;13.88;;
68097;SDS011;54886;47.036;15.466;2022-10-22T13:33:52;18.88;;;12.60;;
68097;SDS011;54886;47.036;15.466;2022-10-22T13:36:20;20.58;;;12.98;;
68097;SDS011;54886;47.036;15.466;2022-10-22T13:38:47;24.83;;;13.82;;
68097;SDS011;54886;47.036;15.466;2022-10-22T13:41:19;22.23;;;13.07;;
68097;SDS011;54886;47.036;15.466;2022-10-22T13:43:45;22.48;;;12.43;;
68097;SDS011;54886;47.036;15.466;2022-10-22T13:46:11;21.02;;;12.18;;
68097;SDS011;54886;47.036;15.466;2022-10-22T13:48:36;20.17;;;13.00;;
68097;SDS011;54886;47.036;15.466;2022-10-22T13:51:03;21.08;;;13.25;;
68097;SDS011;54886;47.036;15.466;2022-10-22T13:53:31;17.98;;;12.63;;
68097;SDS011;54886;47.036;15.466;2022-10-22T13:55:56;19.85;;;12.10;;
68097;SDS011;54886;47.036;15.466;2022-10-22T13:58:22;18.55;;;11.38;;
68097;SDS011;54886;47.036;15.466;2022-10-22T14:00:58;21.17;;;12.05;;
68097;SDS011;54886;47.036;15.466;2022-10-22T14:03:26;16.60;;;11.23;;
68097;SDS011;54886;47.036;15.466;2022-10-22T14:05:54;18.65;;;11.23;;
68097;SDS011;54886;47.036;15.466;2022-10-22T14:08:21;21.25;;;11.13;;
68097;SDS011;54886;47.036;15.466;2022-10-22T14:10:49;19.08;;;11.80;;
68097;SDS011;54886;47.036;15.466;2022-10-22T14:13:15;22.02;;;11.45;;
68097;SDS011;54886;47.036;15.466;2022-10-22T14:15:42;16.52;;;11.35;;
68097;SDS011;54886;47.036;15.466;2022-10-22T14:18:11;15.57;;;10.82;;
68097;SDS011;54886;47.036;15.466;2022-10-22T14:20:41;15.95;;;11.07;;
68097;SDS011;54886;47.036;15.466;2022-10-22T14:23:18;15.00;;;10.63;;
68097;SDS011;54886;47.036;15.466;2022-10-22T14:25:44;18.33;;;11.65;;
68097;SDS011;54886;47.036;15.466;2022-10-22T14:28:10;16.17;;;10.65;;
68097;SDS011;54886;47.036;15.466;2022-10-22T14:30:36;20.58;;;11.10;;
68097;SDS011;54886;47.036;15.466;2022-10-22T14:33:05;22.08;;;11.90;;
68097;SDS011;54886;47.036;15.466;2022-10-22T14:35:40;18.05;;;11.15;;
68097;SDS011;54886;47.036;15.466;2022-10-22T14:38:06;21.33;;;12.15;;
68097;SDS011;54886;47.036;15.466;2022-10-22T14:40:31;19.70;;;12.68;;
68097;SDS011;54886;47.036;15.466;2022-10-22T14:42:57;21.00;;;12.20;;
68097;SDS011;54886;47.036;15.466;2022-10-22T14:45:23;18.88;;;12.63;;
68097;SDS011;54886;47.036;15.466;2022-10-22T14:50:16;18.85;;;12.77;;
68097;SDS011;54886;47.036;15.466;2022-10-22T14:52:43;22.15;;;12.85;;
68097;SDS011;54886;47.036;15.466;2022-10-22T14:55:09;21.30;;;13.82;;
68097;SDS011;54886;47.036;15.466;2022-10-22T14:57:36;24.27;;;14.38;;
68097;SDS011;54886;47.036;15.466;2022-10-22T15:00:03;24.83;;;14.65;;
68097;SDS011;54886;47.036;15.466;2022-10-22T15:02:30;26.73;;;16.02;;
68097;SDS011;54886;47.036;15.466;2022-10-22T15:04:55;25.38;;;15.77;;
68097;SDS011;54886;47.036;15.466;2022-10-22T15:07:21;23.80;;;16.35;;
68097;SDS011;54886;47.036;15.466;2022-10-22T15:09:48;22.40;;;14.80;;
68097;SDS011;54886;47.036;15.466;2022-10-22T15:12:14;23.50;;;15.32;;
68097;SDS011;54886;47.036;15.466;2022-10-22T15:14:40;28.15;;;16.08;;
68097;SDS011;54886;47.036;15.466;2022-10-22T15:17:05;26.05;;;15.70;;
68097;SDS011;54886;47.036;15.466;2022-10-22T15:19:30;25.20;;;15.82;;
68097;SDS011;54886;47.036;15.466;2022-10-22T15:21:56;22.35;;;15.23;;
68097;SDS011;54886;47.036;15.466;2022-10-22T15:24:21;24.67;;;15.73;;
68097;SDS011;54886;47.036;15.466;2022-10-22T15:26:46;22.13;;;15.00;;
68097;SDS011;54886;47.036;15.466;2022-10-22T15:29:12;21.85;;;15.35;;
68097;SDS011;54886;47.036;15.466;2022-10-22T15:31:56;20.77;;;14.38;;
68097;SDS011;54886;47.036;15.466;2022-10-22T15:34:30;22.65;;;14.85;;
68097;SDS011;54886;47.036;15.466;2022-10-22T15:36:58;20.40;;;13.98;;
68097;SDS011;54886;47.036;15.466;2022-10-22T15:39:25;21.92;;;13.88;;
68097;SDS011;54886;47.036;15.466;2022-10-22T15:41:50;23.02;;;14.05;;
68097;SDS011;54886;47.036;15.466;2022-10-22T15:44:17;20.95;;;14.05;;
68097;SDS011;54886;47.036;15.466;2022-10-22T15:46:44;21.88;;;14.38;;
68097;SDS011;54886;47.036;15.466;2022-10-22T15:49:10;19.15;;;13.32;;
68097;SDS011;54886;47.036;15.466;2022-10-22T15:51:37;19.45;;;13.00;;
68097;SDS011;54886;47.036;15.466;2022-10-22T15:54:02;18.45;;;12.95;;
68097;SDS011;54886;47.036;15.466;2022-10-22T15:56:28;17.55;;;12.02;;
68097;SDS011;54886;47.036;15.466;2022-10-22T15:58:55;17.63;;;12.25;;
68097;SDS011;54886;47.036;15.466;2022-10-22T16:03:48;19.25;;;12.15;;
68097;SDS011;54886;47.036;15.466;2022-10-22T16:06:24;17.52;;;11.93;;
68097;SDS011;54886;47.036;15.466;2022-10-22T16:08:51;18.95;;;12.75;;
68097;SDS011;54886;47.036;15.466;2022-10-22T16:11:17;18.27;;;12.85;;
68097;SDS011;54886;47.036;15.466;2022-10-22T16:13:43;17.42;;;12.57;;
68097;SDS011;54886;47.036;15.466;2022-10-22T16:16:08;18.52;;;11.88;;
68097;SDS011;54886;47.036;15.466;2022-10-22T16:18:33;15.85;;;10.88;;
68097;SDS011;54886;47.036;15.466;2022-10-22T16:20:59;15.93;;;11.07;;
68097;SDS011;54886;47.036;15.466;2022-10-22T16:23:24;16.67;;;11.35;;
68097;SDS011;54886;47.036;15.466;2022-10-22T16:25:50;16.73;;;10.90;;
68097;SDS011;54886;47.036;15.466;2022-10-22T16:28:15;15.93;;;11.05;;
68097;SDS011;54886;47.036;15.466;2022-10-22T16:30:40;17.58;;;10.15;;
68097;SDS011;54886;47.036;15.466;2022-10-22T16:33:06;15.95;;;10.50;;
68097;SDS011;54886;47.036;15.466;2022-10-22T16:35:32;13.90;;;10.13;;
68097;SDS011;54886;47.036;15.466;2022-10-22T16:37:58;16.08;;;10.88;;
68097;SDS011;54886;47.036;15.466;2022-10-22T16:40:24;15.07;;;9.95;;
68097;SDS011;54886;47.036;15.466;2022-10-22T16:42:49;17.48;;;10.57;;
68097;SDS011;54886;47.036;15.466;2022-10-22T16:45:15;15.48;;;10.15;;
68097;SDS011;54886;47.036;15.466;2022-10-22T16:47:40;17.38;;;10.63;;
68097;SDS011;54886;47.036;15.466;2022-10-22T16:50:07;13.40;;;9.18;;
68097;SDS011;54886;47.036;15.466;2022-10-22T16:52:33;14.52;;;9.07;;